createdAt,value
2022-10-15T00:00:00.311Z,102180.72
2022-10-15T00:02:28.288Z,102175.50
2022-10-15T00:04:59.116Z,102179.41
2022-10-15T00:07:29.356Z,102174.66
2022-10-15T00:09:58.743Z,102171.63
2022-10-15T00:12:28.252Z,102175.28
2022-10-15T00:14:57.237Z,102174.22
2022-10-15T00:17:25.537Z,102175.63
2022-10-15T00:19:54.572Z,102175.66
2022-10-15T00:22:22.423Z,102176.41
2022-10-15T00:24:52.223Z,102183.22
2022-10-15T00:27:23.408Z,102181.78
2022-10-15T00:29:51.889Z,102187.59
2022-10-15T00:32:19.465Z,102178.63
2022-10-15T00:34:50.229Z,102181.53
2022-10-15T00:37:21.185Z,102183.47
2022-10-15T00:39:49.449Z,102186.16
2022-10-15T00:42:19.118Z,102191.88
2022-10-15T00:44:59.333Z,102186.16
2022-10-15T00:47:39.091Z,102190.31
2022-10-15T00:50:17.200Z,102185.31
2022-10-15T00:52:51.230Z,102198.81
2022-10-15T00:55:30.023Z,102200.28
2022-10-15T00:58:07.165Z,102201.84
2022-10-15T01:00:36.359Z,102197.81
2022-10-15T01:03:04.510Z,102197.81
2022-10-15T01:05:35.740Z,102200.00
2022-10-15T01:08:04.275Z,102192.00
2022-10-15T01:10:49.893Z,102192.84
2022-10-15T01:13:48.979Z,102199.78
2022-10-15T01:16:25.250Z,102190.19
2022-10-15T01:19:07.284Z,102197.34
2022-10-15T01:21:49.303Z,102197.09
2022-10-15T01:24:49.987Z,102202.19
2022-10-15T01:27:18.180Z,102201.44
2022-10-15T01:30:00.825Z,102195.13
2022-10-15T01:32:35.107Z,102192.56
2022-10-15T01:35:39.822Z,102198.88
2022-10-15T01:38:32.170Z,102196.53
2022-10-15T01:41:25.336Z,102203.50
2022-10-15T01:44:16.920Z,102202.28
2022-10-15T01:46:57.704Z,102204.69
2022-10-15T01:49:31.049Z,102207.84
2022-10-15T01:52:03.947Z,102216.50
2022-10-15T01:54:33.249Z,102209.97
2022-10-15T01:57:04.104Z,102209.34
2022-10-15T01:59:37.476Z,102213.22
2022-10-15T02:02:07.001Z,102217.81
2022-10-15T02:04:35.344Z,102212.84
2022-10-15T02:07:11.097Z,102214.16
2022-10-15T02:10:20.528Z,102211.38
2022-10-15T02:13:16.796Z,102215.47
2022-10-15T02:16:02.569Z,102215.72
2022-10-15T02:19:06.131Z,102217.44
2022-10-15T02:22:02.342Z,102225.59
2022-10-15T02:24:39.918Z,102226.06
2022-10-15T02:27:19.996Z,102216.94
2022-10-15T02:35:07.704Z,102223.84
2022-10-15T02:37:37.367Z,102232.81
2022-10-15T02:40:06.638Z,102230.25
2022-10-15T02:47:55.772Z,102221.84
2022-10-15T02:50:23.638Z,102229.22
2022-10-15T02:52:53.865Z,102224.88
2022-10-15T02:55:22.900Z,102220.16
2022-10-15T02:57:51.317Z,102228.34
2022-10-15T03:00:19.458Z,102223.44
2022-10-15T03:02:48.321Z,102225.59
2022-10-15T03:05:19.094Z,102226.94
2022-10-15T03:07:48.674Z,102229.53
2022-10-15T03:10:17.445Z,102229.97
2022-10-15T03:12:45.357Z,102236.06
2022-10-15T03:15:15.116Z,102229.19
2022-10-15T03:17:43.463Z,102227.31
2022-10-15T03:20:12.437Z,102226.56
2022-10-15T03:22:42.331Z,102226.44
2022-10-15T03:25:12.328Z,102232.94
2022-10-15T03:27:42.567Z,102239.69
2022-10-15T03:30:12.013Z,102232.91
2022-10-15T03:32:41.399Z,102230.16
2022-10-15T03:35:10.857Z,102232.59
2022-10-15T03:37:41.936Z,102236.19
2022-10-15T03:40:13.653Z,102233.75
2022-10-15T03:42:42.313Z,102228.94
2022-10-15T03:45:11.751Z,102230.75
2022-10-15T03:47:41.364Z,102234.03
2022-10-15T03:50:09.691Z,102234.72
2022-10-15T03:52:41.403Z,102238.34
2022-10-15T03:55:11.810Z,102243.91
2022-10-15T03:57:42.338Z,102249.72
2022-10-15T04:00:12.611Z,102240.75
2022-10-15T04:02:44.537Z,102243.47
2022-10-15T04:05:12.463Z,102249.22
2022-10-15T04:07:43.205Z,102251.06
2022-10-15T04:10:12.481Z,102250.09
2022-10-15T04:12:42.165Z,102249.00
2022-10-15T04:15:10.497Z,102252.22
2022-10-15T04:17:39.277Z,102249.00
2022-10-15T04:20:07.948Z,102254.56
2022-10-15T04:22:38.214Z,102256.06
2022-10-15T04:25:06.839Z,102251.78
2022-10-15T04:27:35.946Z,102254.47
2022-10-15T04:30:06.098Z,102256.69
2022-10-15T04:32:35.247Z,102265.66
2022-10-15T04:35:03.709Z,102267.59
2022-10-15T04:37:36.308Z,102259.47
2022-10-15T04:40:05.951Z,102260.00
2022-10-15T04:42:36.988Z,102261.94
2022-10-15T04:45:07.400Z,102265.16
2022-10-15T04:47:36.344Z,102270.28
2022-10-15T04:50:05.482Z,102266.88
2022-10-15T04:52:34.859Z,102264.47
2022-10-15T04:55:05.550Z,102269.69
2022-10-15T04:57:34.406Z,102274.06
2022-10-15T05:00:02.318Z,102278.34
2022-10-15T05:02:33.201Z,102278.97
2022-10-15T05:05:01.374Z,102277.19
2022-10-15T05:07:30.195Z,102286.41
2022-10-15T05:09:59.577Z,102275.50
2022-10-15T05:12:28.302Z,102280.41
2022-10-15T05:14:59.182Z,102292.06
2022-10-15T05:17:27.350Z,102293.91
2022-10-15T05:19:56.665Z,102301.59
2022-10-15T05:22:24.736Z,102297.00
2022-10-15T05:24:56.537Z,102295.44
2022-10-15T05:27:26.969Z,102302.88
2022-10-15T05:29:56.034Z,102299.22
2022-10-15T05:32:27.025Z,102297.78
2022-10-15T05:34:55.894Z,102295.38
2022-10-15T05:37:26.668Z,102304.84
2022-10-15T05:39:55.835Z,102300.47
2022-10-15T05:42:24.376Z,102307.06
2022-10-15T05:44:53.015Z,102307.78
2022-10-15T05:47:21.511Z,102305.56
2022-10-15T05:49:50.747Z,102304.59
2022-10-15T05:52:18.364Z,102308.28
2022-10-15T05:54:50.779Z,102313.13
2022-10-15T05:57:19.387Z,102304.59
2022-10-15T05:59:49.669Z,102302.00
2022-10-15T06:02:20.426Z,102310.13
2022-10-15T06:04:49.741Z,102309.09
2022-10-15T06:07:20.502Z,102313.91
2022-10-15T06:09:49.555Z,102315.38
2022-10-15T06:12:21.007Z,102312.69
2022-10-15T06:14:50.112Z,102310.41
2022-10-15T06:17:19.235Z,102315.59
2022-10-15T06:19:49.782Z,102309.84
2022-10-15T06:22:19.918Z,102313.91
2022-10-15T06:24:48.447Z,102320.28
2022-10-15T06:27:17.686Z,102314.19
2022-10-15T06:29:46.740Z,102317.53
2022-10-15T06:32:15.958Z,102314.84
2022-10-15T06:34:44.964Z,102322.34
2022-10-15T06:37:13.352Z,102311.03
2022-10-15T06:39:43.086Z,102310.53
2022-10-15T06:42:11.415Z,102308.13
2022-10-15T06:44:40.853Z,102310.28
2022-10-15T06:47:09.936Z,102296.41
2022-10-15T06:49:38.866Z,102302.34
2022-10-15T06:52:07.358Z,102300.94
2022-10-15T06:54:36.331Z,102299.22
2022-10-15T06:57:05.443Z,102304.59
2022-10-15T06:59:38.512Z,102306.72
2022-10-15T07:02:11.104Z,102302.59
2022-10-15T07:04:40.998Z,102302.84
2022-10-15T07:07:09.499Z,102307.03
2022-10-15T07:09:39.355Z,102309.59
2022-10-15T07:12:07.448Z,102302.63
2022-10-15T07:14:40.061Z,102312.94
2022-10-15T07:17:17.092Z,102315.72
2022-10-15T07:19:46.349Z,102314.69
2022-10-15T07:22:14.273Z,102315.63
2022-10-15T07:24:44.550Z,102319.56
2022-10-15T07:27:20.875Z,102310.72
2022-10-15T07:29:49.417Z,102313.03
2022-10-15T07:32:20.897Z,102313.81
2022-10-15T07:34:50.370Z,102322.00
2022-10-15T07:37:18.979Z,102314.47
2022-10-15T07:39:49.093Z,102322.97
2022-10-15T07:42:17.433Z,102322.03
2022-10-15T07:44:46.324Z,102316.88
2022-10-15T07:47:14.272Z,102326.75
2022-10-15T07:49:42.303Z,102309.13
2022-10-15T07:52:10.940Z,102316.56
2022-10-15T07:54:40.761Z,102308.78
2022-10-15T07:57:09.745Z,102315.69
2022-10-15T07:59:38.430Z,102314.84
2022-10-15T08:02:12.599Z,102316.53
2022-10-15T08:04:41.444Z,102312.69
2022-10-15T08:07:11.112Z,102313.19
2022-10-15T08:09:41.285Z,102306.19
2022-10-15T08:12:12.922Z,102304.59
2022-10-15T08:14:41.654Z,102307.84
2022-10-15T08:17:16.824Z,102306.00
2022-10-15T08:19:44.271Z,102306.75
2022-10-15T08:22:13.070Z,102309.94
2022-10-15T08:24:42.383Z,102307.31
2022-10-15T08:27:11.960Z,102308.44
2022-10-15T08:29:41.715Z,102296.41
2022-10-15T08:32:10.419Z,102314.00
2022-10-15T08:34:39.522Z,102309.72
2022-10-15T08:37:11.475Z,102307.53
2022-10-15T08:39:40.888Z,102304.53
2022-10-15T08:42:20.424Z,102305.56
2022-10-15T08:45:16.058Z,102295.09
2022-10-15T08:47:51.196Z,102295.09
2022-10-15T08:51:06.037Z,102305.41
2022-10-15T08:53:46.051Z,102297.16
2022-10-15T08:56:40.047Z,102300.88
2022-10-15T08:59:40.639Z,102287.31
2022-10-15T09:02:25.355Z,102293.75
2022-10-15T09:05:12.935Z,102289.72
2022-10-15T09:08:01.199Z,102304.91
2022-10-15T09:10:45.947Z,102292.91
2022-10-15T09:13:23.361Z,102293.06
2022-10-15T09:16:13.057Z,102288.00
2022-10-15T09:18:48.161Z,102279.34
2022-10-15T09:21:21.038Z,102286.94
2022-10-15T09:23:51.737Z,102281.91
2022-10-15T09:26:57.183Z,102279.50
2022-10-15T09:29:50.389Z,102280.47
2022-10-15T09:32:40.646Z,102265.91
2022-10-15T09:35:34.631Z,102272.78
2022-10-15T09:38:25.133Z,102268.63
2022-10-15T09:41:17.533Z,102259.41
2022-10-15T09:43:51.932Z,102259.44
2022-10-15T09:46:19.558Z,102256.38
2022-10-15T09:49:19.154Z,102267.91
2022-10-15T09:52:21.884Z,102263.16
2022-10-15T09:55:06.460Z,102265.00
2022-10-15T09:57:38.649Z,102260.19
2022-10-15T10:00:13.740Z,102254.34
2022-10-15T10:02:42.348Z,102252.53
2022-10-15T10:05:33.923Z,102251.66
2022-10-15T10:08:24.705Z,102255.03
2022-10-15T10:11:01.568Z,102244.69
2022-10-15T10:13:44.704Z,102247.81
2022-10-15T10:16:15.582Z,102240.81
2022-10-15T10:19:16.531Z,102245.88
2022-10-15T10:21:46.784Z,102246.28
2022-10-15T10:24:22.102Z,102240.81
2022-10-15T10:26:50.563Z,102227.91
2022-10-15T10:29:36.586Z,102229.50
2022-10-15T10:32:20.794Z,102222.84
2022-10-15T10:34:52.881Z,102223.53
2022-10-15T10:37:22.868Z,102216.63
2022-10-15T10:40:01.350Z,102215.78
2022-10-15T10:42:34.977Z,102215.50
2022-10-15T10:45:23.904Z,102215.25
2022-10-15T10:47:53.247Z,102212.88
2022-10-15T10:50:42.546Z,102206.28
2022-10-15T10:53:31.818Z,102203.50
2022-10-15T10:56:04.762Z,102201.16
2022-10-15T10:58:35.058Z,102201.22
2022-10-15T11:01:03.705Z,102210.97
2022-10-15T11:03:36.291Z,102214.25
2022-10-15T11:06:58.092Z,102205.97
2022-10-15T11:10:04.485Z,102205.84
2022-10-15T11:13:00.905Z,102210.75
2022-10-15T11:15:51.956Z,102206.75
2022-10-15T11:18:50.588Z,102205.53
2022-10-15T11:21:41.622Z,102202.41
2022-10-15T11:38:15.825Z,102215.06
2022-10-15T11:41:11.757Z,102210.94
2022-10-15T11:44:00.677Z,102215.25
2022-10-15T11:46:29.823Z,102207.50
2022-10-15T11:49:18.532Z,102208.84
2022-10-15T11:52:13.563Z,102211.78
2022-10-15T11:55:08.647Z,102209.84
2022-10-15T11:57:40.432Z,102207.59
2022-10-15T12:00:41.132Z,102214.34
2022-10-15T12:03:28.214Z,102210.38
2022-10-15T12:06:07.271Z,102205.78
2022-10-15T12:08:38.732Z,102201.94
2022-10-15T12:12:04.368Z,102207.91
2022-10-15T12:15:11.767Z,102211.00
2022-10-15T12:17:51.484Z,102209.31
2022-10-15T12:20:23.324Z,102211.78
2022-10-15T12:23:01.164Z,102212.53
2022-10-15T12:25:37.200Z,102208.97
2022-10-15T12:28:20.800Z,102207.63
2022-10-15T12:31:02.940Z,102211.00
2022-10-15T12:33:45.470Z,102213.97
2022-10-15T12:36:32.449Z,102214.66
2022-10-15T12:39:33.531Z,102215.34
2022-10-15T12:42:36.005Z,102219.34
2022-10-15T12:45:22.956Z,102212.13
2022-10-15T12:47:56.864Z,102206.53
2022-10-15T12:50:31.401Z,102198.22
2022-10-15T12:53:07.392Z,102201.31
2022-10-15T12:55:40.002Z,102197.81
2022-10-15T12:58:36.292Z,102197.00
2022-10-15T13:01:16.186Z,102204.69
2022-10-15T13:03:54.006Z,102193.88
2022-10-15T13:06:38.089Z,102189.06
2022-10-15T13:09:12.572Z,102180.31
2022-10-15T13:11:55.310Z,102183.63
2022-10-15T13:14:47.060Z,102177.75
2022-10-15T13:17:22.678Z,102179.66
2022-10-15T13:20:10.628Z,102180.50
2022-10-15T13:22:40.262Z,102173.34
2022-10-15T13:25:18.975Z,102176.72
2022-10-15T13:27:49.232Z,102180.50
2022-10-15T13:30:17.025Z,102175.44
2022-10-15T13:32:57.369Z,102163.03
2022-10-15T13:35:29.839Z,102164.53
2022-10-15T13:38:00.204Z,102165.94
2022-10-15T13:40:32.784Z,102158.94
2022-10-15T13:43:23.311Z,102158.69
2022-10-15T13:45:58.212Z,102157.31
2022-10-15T13:48:29.978Z,102153.03
2022-10-15T13:51:04.488Z,102147.88
2022-10-15T13:53:40.633Z,102165.28
2022-10-15T13:56:31.695Z,102163.94
2022-10-15T13:59:02.452Z,102161.69
2022-10-15T14:01:33.449Z,102156.94
2022-10-15T14:04:03.338Z,102171.31
2022-10-15T14:06:40.241Z,102167.66
2022-10-15T14:09:33.829Z,102173.13
2022-10-15T14:12:11.600Z,102173.56
2022-10-15T14:14:48.326Z,102173.25
2022-10-15T14:17:28.796Z,102176.53
2022-10-15T14:22:55.467Z,102177.03
2022-10-15T14:25:28.389Z,102183.59
2022-10-15T14:27:57.273Z,102183.03
2022-10-15T14:30:34.525Z,102189.63
2022-10-15T14:33:04.111Z,102188.03
2022-10-15T14:35:37.978Z,102190.03
2022-10-15T14:38:16.523Z,102189.59
2022-10-15T14:41:06.331Z,102191.72
2022-10-15T14:43:37.969Z,102191.81
2022-10-15T14:46:12.018Z,102192.72
2022-10-15T14:48:43.625Z,102191.56
2022-10-15T14:51:25.122Z,102194.69
2022-10-15T14:53:54.608Z,102194.09
2022-10-15T14:56:32.265Z,102205.19
2022-10-15T14:59:03.795Z,102198.75
2022-10-15T15:01:34.101Z,102203.69
2022-10-15T15:04:02.988Z,102211.47
2022-10-15T15:06:32.914Z,102211.50
2022-10-15T15:09:02.397Z,102213.50
2022-10-15T15:11:30.356Z,102219.81
2022-10-15T15:13:58.352Z,102216.03
2022-10-15T15:16:27.630Z,102212.56
2022-10-15T15:18:56.563Z,102216.00
2022-10-15T15:21:24.680Z,102226.53
2022-10-15T15:23:53.753Z,102225.81
2022-10-15T15:26:22.527Z,102222.03
2022-10-15T15:28:51.524Z,102222.06
2022-10-15T15:31:19.392Z,102222.78
2022-10-15T15:33:48.485Z,102218.97
2022-10-15T15:36:22.635Z,102224.91
2022-10-15T15:38:52.984Z,102228.03
2022-10-15T15:41:23.422Z,102241.13
2022-10-15T15:43:55.636Z,102230.50
2022-10-15T15:46:24.352Z,102234.03
2022-10-15T15:48:54.027Z,102240.50
2022-10-15T15:51:28.915Z,102235.72
2022-10-15T15:53:59.345Z,102234.59
2022-10-15T15:56:27.066Z,102231.38
2022-10-15T15:58:58.642Z,102240.03
2022-10-15T16:01:27.810Z,102244.84
2022-10-15T16:03:56.487Z,102239.59
2022-10-15T16:06:24.317Z,102236.91
2022-10-15T16:08:58.440Z,102245.69
2022-10-15T16:11:26.624Z,102240.91
2022-10-15T16:13:58.264Z,102250.09
2022-10-15T16:16:27.048Z,102246.13
2022-10-15T16:18:57.097Z,102238.38
2022-10-15T16:21:34.893Z,102247.44
2022-10-15T16:24:08.913Z,102245.16
2022-10-15T16:26:39.310Z,102242.19
2022-10-15T16:29:10.930Z,102251.69
2022-10-15T16:31:42.708Z,102247.44
2022-10-15T16:34:11.345Z,102253.66
2022-10-15T16:36:39.536Z,102253.53
2022-10-15T16:39:08.339Z,102257.06
2022-10-15T16:41:40.793Z,102253.81
2022-10-15T16:44:09.279Z,102247.44
2022-10-15T16:46:38.634Z,102245.59
2022-10-15T16:49:06.402Z,102247.44
2022-10-15T16:51:37.526Z,102251.53
2022-10-15T16:54:14.150Z,102256.22
2022-10-15T16:56:49.041Z,102259.59
2022-10-15T16:59:24.761Z,102257.88
2022-10-15T17:01:56.033Z,102255.91
2022-10-15T17:04:25.455Z,102259.19
2022-10-15T17:06:55.687Z,102259.44
2022-10-15T17:09:29.811Z,102263.28
2022-10-15T17:11:59.153Z,102256.50
2022-10-15T17:14:27.757Z,102265.84
2022-10-15T17:16:58.139Z,102265.13
2022-10-15T17:19:30.623Z,102261.59
2022-10-15T17:22:06.268Z,102262.16
2022-10-15T17:24:35.210Z,102259.47
2022-10-15T17:27:03.888Z,102264.28
2022-10-15T17:29:34.601Z,102266.97
2022-10-15T17:32:03.130Z,102271.63
2022-10-15T17:34:32.368Z,102271.50
2022-10-15T17:37:00.322Z,102272.34
2022-10-15T17:39:28.985Z,102277.44
2022-10-15T17:41:57.258Z,102283.09
2022-10-15T17:44:25.272Z,102291.28
2022-10-15T17:46:55.936Z,102294.25
2022-10-15T17:49:24.522Z,102291.13
2022-10-15T17:51:54.734Z,102290.13
2022-10-15T17:54:23.357Z,102296.47
2022-10-15T17:56:52.514Z,102306.50
2022-10-15T17:59:23.385Z,102290.47
2022-10-15T18:01:59.841Z,102297.97
2022-10-15T18:04:29.870Z,102297.13
2022-10-15T18:07:01.517Z,102297.47
2022-10-15T18:09:32.836Z,102292.63
2022-10-15T18:12:03.133Z,102298.97
2022-10-15T18:14:33.285Z,102295.53
2022-10-15T18:17:03.053Z,102299.56
2022-10-15T18:19:31.459Z,102302.28
2022-10-15T18:22:00.358Z,102292.38
2022-10-15T18:24:28.742Z,102293.19
2022-10-15T18:26:59.286Z,102294.78
2022-10-15T18:29:27.704Z,102300.47
2022-10-15T18:31:58.203Z,102300.19
2022-10-15T18:34:27.565Z,102301.00
2022-10-15T18:36:55.449Z,102303.00
2022-10-15T18:39:25.799Z,102305.84
2022-10-15T18:41:55.355Z,102309.56
2022-10-15T18:44:24.823Z,102310.69
2022-10-15T18:46:53.702Z,102308.41
2022-10-15T18:49:25.745Z,102313.28
2022-10-15T18:51:55.651Z,102310.16
2022-10-15T18:54:24.492Z,102314.41
2022-10-15T18:56:54.103Z,102314.16
2022-10-15T18:59:22.361Z,102315.25
2022-10-15T19:01:54.668Z,102321.28
2022-10-15T19:04:24.717Z,102315.78
2022-10-15T19:06:55.478Z,102315.19
2022-10-15T19:09:26.765Z,102312.88
2022-10-15T19:12:02.305Z,102310.00
2022-10-15T19:14:31.413Z,102310.00
2022-10-15T19:17:00.549Z,102317.81
2022-10-15T19:19:29.787Z,102314.28
2022-10-15T19:21:59.443Z,102318.06
2022-10-15T19:24:27.602Z,102323.44
2022-10-15T19:27:00.284Z,102318.47
2022-10-15T19:29:35.162Z,102318.00
2022-10-15T19:32:04.110Z,102319.72
2022-10-15T19:34:38.110Z,102324.22
2022-10-15T19:37:07.309Z,102327.88
2022-10-15T19:39:39.511Z,102330.97
2022-10-15T19:42:07.537Z,102327.19
2022-10-15T19:44:40.628Z,102325.13
2022-10-15T19:47:09.888Z,102330.72
2022-10-15T19:49:38.305Z,102332.28
2022-10-15T19:52:07.434Z,102335.09
2022-10-15T19:54:37.408Z,102337.91
2022-10-15T19:57:15.893Z,102342.03
2022-10-15T19:59:46.548Z,102339.41
2022-10-15T20:02:15.489Z,102338.53
2022-10-15T20:04:45.078Z,102351.09
2022-10-15T20:07:13.271Z,102354.75
2022-10-15T20:09:43.091Z,102348.66
2022-10-15T20:12:11.728Z,102345.28
2022-10-15T20:14:41.056Z,102345.50
2022-10-15T20:17:09.289Z,102345.03
2022-10-15T20:19:38.436Z,102352.22
2022-10-15T20:22:06.309Z,102349.66
2022-10-15T20:24:35.736Z,102346.13
2022-10-15T20:27:07.441Z,102349.75
2022-10-15T20:29:37.479Z,102348.41
2022-10-15T20:32:23.405Z,102342.56
2022-10-15T20:35:05.698Z,102343.06
2022-10-15T20:37:37.329Z,102347.56
2022-10-15T20:40:06.369Z,102337.97
2022-10-15T20:42:38.259Z,102332.09
2022-10-15T20:45:09.533Z,102343.28
2022-10-15T20:47:42.844Z,102340.25
2022-10-15T20:50:18.687Z,102343.91
2022-10-15T20:52:48.253Z,102344.03
2022-10-15T20:55:16.490Z,102343.69
2022-10-15T20:57:46.655Z,102340.38
2022-10-15T21:00:15.883Z,102339.88
2022-10-15T21:02:46.284Z,102348.41
2022-10-15T21:05:15.543Z,102343.06
2022-10-15T21:07:47.301Z,102349.84
2022-10-15T21:10:15.058Z,102355.59
2022-10-15T21:12:45.675Z,102360.56
2022-10-15T21:15:16.882Z,102354.47
2022-10-15T21:17:46.020Z,102357.41
2022-10-15T21:20:14.316Z,102347.78
2022-10-15T21:22:46.303Z,102358.72
2022-10-15T21:25:15.396Z,102361.16
2022-10-15T21:27:43.286Z,102365.38
2022-10-15T21:30:12.369Z,102369.44
2022-10-15T21:32:42.158Z,102366.00
2022-10-15T21:35:11.389Z,102364.19
2022-10-15T21:37:41.057Z,102364.19
2022-10-15T21:40:10.014Z,102369.06
2022-10-15T21:42:40.004Z,102360.91
2022-10-15T21:45:08.966Z,102364.69
2022-10-15T21:47:38.227Z,102364.31
2022-10-15T21:50:06.665Z,102367.38
2022-10-15T21:52:35.825Z,102367.81
2022-10-15T21:55:04.605Z,102365.59
2022-10-15T21:57:33.995Z,102378.91
2022-10-15T22:00:02.376Z,102374.38
2022-10-15T22:02:33.344Z,102382.03
2022-10-15T22:05:01.216Z,102381.72
2022-10-15T22:07:30.651Z,102380.47
2022-10-15T22:10:03.068Z,102388.59
2022-10-15T22:12:35.364Z,102391.16
2022-10-15T22:15:07.650Z,102387.97
2022-10-15T22:17:37.347Z,102389.19
2022-10-15T22:20:07.312Z,102395.75
2022-10-15T22:22:38.193Z,102394.44
2022-10-15T22:25:06.172Z,102391.97
2022-10-15T22:27:34.189Z,102394.47
2022-10-15T22:30:04.927Z,102392.84
2022-10-15T22:32:33.287Z,102400.97
2022-10-15T22:35:02.309Z,102389.53
2022-10-15T22:37:30.253Z,102402.66
2022-10-15T22:39:58.300Z,102390.84
2022-10-15T22:42:27.626Z,102394.47
2022-10-15T22:44:56.179Z,102392.81
2022-10-15T22:47:25.075Z,102397.34
2022-10-15T22:49:53.368Z,102406.75
2022-10-15T22:52:22.142Z,102395.19
2022-10-15T22:54:50.721Z,102398.38
2022-10-15T22:57:20.379Z,102403.50
2022-10-15T22:59:54.768Z,102401.91
2022-10-15T23:02:27.065Z,102400.53
2022-10-15T23:04:57.961Z,102394.56
2022-10-15T23:07:26.792Z,102400.53
2022-10-15T23:09:57.783Z,102401.97
2022-10-15T23:12:26.731Z,102402.59
2022-10-15T23:14:58.292Z,102410.59
2022-10-15T23:17:31.632Z,102406.34
2022-10-15T23:19:59.212Z,102411.94
2022-10-15T23:22:28.553Z,102411.19
2022-10-15T23:24:56.232Z,102410.78
2022-10-15T23:27:28.987Z,102415.28
2022-10-15T23:30:07.626Z,102415.28
2022-10-15T23:32:48.582Z,102414.84
2022-10-15T23:35:16.765Z,102420.19
2022-10-15T23:37:48.036Z,102409.19
2022-10-15T23:40:17.845Z,102410.66
2022-10-15T23:42:46.932Z,102418.69
2022-10-15T23:45:15.316Z,102419.44
2022-10-15T23:47:47.603Z,102422.53
2022-10-15T23:50:16.218Z,102423.50
2022-10-15T23:52:47.991Z,102426.44
2022-10-15T23:55:17.419Z,102431.03
2022-10-15T23:57:47.373Z,102437.03
